sensor_id;sensor_type;location;lat;lon;timestamp;P1;P2;P0
47079;PMS5003;33067;49.296;14.470;2023-04-24T00:00:44;21;18;
47079;PMS5003;33067;49.296;14.470;2023-04-24T00:03:09;17;17;
47079;PMS5003;33067;49.296;14.470;2023-04-24T00:05:35;24;24;
47079;PMS5003;33067;49.296;14.470;2023-04-24T00:08:01;20;19;
47079;PMS5003;33067;49.296;14.470;2023-04-24T00:10:26;20;19;
47079;PMS5003;33067;49.296;14.470;2023-04-24T00:12:51;23;21;
47079;PMS5003;33067;49.296;14.470;2023-04-24T00:15:17;21;20;
47079;PMS5003;33067;49.296;14.470;2023-04-24T00:17:42;19;18;
47079;PMS5003;33067;49.296;14.470;2023-04-24T00:20:07;24;24;
47079;PMS5003;33067;49.296;14.470;2023-04-24T00:22:33;25;21;
47079;PMS5003;33067;49.296;14.470;2023-04-24T00:24:59;24;22;
47079;PMS5003;33067;49.296;14.470;2023-04-24T00:27:24;25;23;
47079;PMS5003;33067;49.296;14.470;2023-04-24T00:29:49;22;22;
47079;PMS5003;33067;49.296;14.470;2023-04-24T00:32:15;26;25;
47079;PMS5003;33067;49.296;14.470;2023-04-24T00:34:40;25;24;
47079;PMS5003;33067;49.296;14.470;2023-04-24T00:37:05;28;25;
47079;PMS5003;33067;49.296;14.470;2023-04-24T00:39:31;23;22;
47079;PMS5003;33067;49.296;14.470;2023-04-24T00:41:57;25;22;
47079;PMS5003;33067;49.296;14.470;2023-04-24T00:44:22;21;19;
47079;PMS5003;33067;49.296;14.470;2023-04-24T00:46:48;23;22;
47079;PMS5003;33067;49.296;14.470;2023-04-24T00:49:14;27;27;
47079;PMS5003;33067;49.296;14.470;2023-04-24T00:51:39;31;29;
47079;PMS5003;33067;49.296;14.470;2023-04-24T00:54:04;25;23;
47079;PMS5003;33067;49.296;14.470;2023-04-24T00:56:30;28;24;
47079;PMS5003;33067;49.296;14.470;2023-04-24T00:58:55;25;23;
47079;PMS5003;33067;49.296;14.470;2023-04-24T01:01:21;33;30;
47079;PMS5003;33067;49.296;14.470;2023-04-24T01:03:47;34;27;
47079;PMS5003;33067;49.296;14.470;2023-04-24T01:06:12;28;26;
47079;PMS5003;33067;49.296;14.470;2023-04-24T01:08:38;23;23;
47079;PMS5003;33067;49.296;14.470;2023-04-24T01:11:04;30;29;
47079;PMS5003;33067;49.296;14.470;2023-04-24T01:13:29;23;23;
47079;PMS5003;33067;49.296;14.470;2023-04-24T01:15:56;20;18;
47079;PMS5003;33067;49.296;14.470;2023-04-24T01:18:20;16;16;
47079;PMS5003;33067;49.296;14.470;2023-04-24T01:20:45;20;17;
47079;PMS5003;33067;49.296;14.470;2023-04-24T01:23:11;18;18;
47079;PMS5003;33067;49.296;14.470;2023-04-24T01:25:36;16;16;
47079;PMS5003;33067;49.296;14.470;2023-04-24T01:28:01;19;18;
47079;PMS5003;33067;49.296;14.470;2023-04-24T01:30:27;17;17;
47079;PMS5003;33067;49.296;14.470;2023-04-24T01:32:52;13;13;
47079;PMS5003;33067;49.296;14.470;2023-04-24T01:35:17;18;17;
47079;PMS5003;33067;49.296;14.470;2023-04-24T01:37:43;20;19;
47079;PMS5003;33067;49.296;14.470;2023-04-24T01:40:08;18;17;
47079;PMS5003;33067;49.296;14.470;2023-04-24T01:42:34;19;17;
47079;PMS5003;33067;49.296;14.470;2023-04-24T01:44:59;17;17;
47079;PMS5003;33067;49.296;14.470;2023-04-24T01:47:25;22;19;
47079;PMS5003;33067;49.296;14.470;2023-04-24T01:49:51;29;25;
47079;PMS5003;33067;49.296;14.470;2023-04-24T01:52:17;19;18;
47079;PMS5003;33067;49.296;14.470;2023-04-24T01:54:42;24;19;
47079;PMS5003;33067;49.296;14.470;2023-04-24T01:57:07;15;14;
47079;PMS5003;33067;49.296;14.470;2023-04-24T01:59:33;20;18;
47079;PMS5003;33067;49.296;14.470;2023-04-24T02:01:59;26;25;
47079;PMS5003;33067;49.296;14.470;2023-04-24T02:04:24;26;22;
47079;PMS5003;33067;49.296;14.470;2023-04-24T02:06:49;36;31;
47079;PMS5003;33067;49.296;14.470;2023-04-24T02:09:14;38;35;
47079;PMS5003;33067;49.296;14.470;2023-04-24T02:13:02;32;31;
47079;PMS5003;33067;49.296;14.470;2023-04-24T02:15:27;31;30;
47079;PMS5003;33067;49.296;14.470;2023-04-24T02:17:52;25;25;
47079;PMS5003;33067;49.296;14.470;2023-04-24T02:20:19;36;29;
47079;PMS5003;33067;49.296;14.470;2023-04-24T02:22:43;31;29;
47079;PMS5003;33067;49.296;14.470;2023-04-24T02:25:09;23;22;
47079;PMS5003;33067;49.296;14.470;2023-04-24T02:27:34;23;22;
47079;PMS5003;33067;49.296;14.470;2023-04-24T02:30:00;21;21;
47079;PMS5003;33067;49.296;14.470;2023-04-24T02:32:25;27;26;
47079;PMS5003;33067;49.296;14.470;2023-04-24T02:34:51;22;21;
47079;PMS5003;33067;49.296;14.470;2023-04-24T02:37:17;23;22;
47079;PMS5003;33067;49.296;14.470;2023-04-24T02:39:43;30;29;
47079;PMS5003;33067;49.296;14.470;2023-04-24T02:42:08;20;18;
47079;PMS5003;33067;49.296;14.470;2023-04-24T02:44:34;22;18;
47079;PMS5003;33067;49.296;14.470;2023-04-24T02:46:59;33;32;
47079;PMS5003;33067;49.296;14.470;2023-04-24T02:49:24;60;54;
47079;PMS5003;33067;49.296;14.470;2023-04-24T02:51:49;46;45;
47079;PMS5003;33067;49.296;14.470;2023-04-24T02:54:15;48;44;
47079;PMS5003;33067;49.296;14.470;2023-04-24T02:56:40;51;47;
47079;PMS5003;33067;49.296;14.470;2023-04-24T02:59:05;38;31;
47079;PMS5003;33067;49.296;14.470;2023-04-24T03:01:30;23;23;
47079;PMS5003;33067;49.296;14.470;2023-04-24T03:03:56;20;20;
47079;PMS5003;33067;49.296;14.470;2023-04-24T03:06:22;18;17;
47079;PMS5003;33067;49.296;14.470;2023-04-24T03:08:48;26;21;
47079;PMS5003;33067;49.296;14.470;2023-04-24T03:11:13;31;28;
47079;PMS5003;33067;49.296;14.470;2023-04-24T03:13:38;29;27;
47079;PMS5003;33067;49.296;14.470;2023-04-24T03:16:04;31;27;
47079;PMS5003;33067;49.296;14.470;2023-04-24T03:18:29;26;26;
47079;PMS5003;33067;49.296;14.470;2023-04-24T03:20:55;30;27;
47079;PMS5003;33067;49.296;14.470;2023-04-24T03:23:20;35;29;
47079;PMS5003;33067;49.296;14.470;2023-04-24T03:25:45;31;28;
47079;PMS5003;33067;49.296;14.470;2023-04-24T03:28:11;32;32;
47079;PMS5003;33067;49.296;14.470;2023-04-24T03:30:36;28;26;
47079;PMS5003;33067;49.296;14.470;2023-04-24T03:33:02;35;33;
47079;PMS5003;33067;49.296;14.470;2023-04-24T03:35:27;29;27;
47079;PMS5003;33067;49.296;14.470;2023-04-24T03:37:53;30;28;
47079;PMS5003;33067;49.296;14.470;2023-04-24T03:40:18;24;24;
47079;PMS5003;33067;49.296;14.470;2023-04-24T03:42:44;25;25;
47079;PMS5003;33067;49.296;14.470;2023-04-24T03:45:09;25;21;
47079;PMS5003;33067;49.296;14.470;2023-04-24T03:47:34;22;21;
47079;PMS5003;33067;49.296;14.470;2023-04-24T03:50:00;28;28;
47079;PMS5003;33067;49.296;14.470;2023-04-24T03:52:25;29;25;
47079;PMS5003;33067;49.296;14.470;2023-04-24T03:54:50;32;29;
47079;PMS5003;33067;49.296;14.470;2023-04-24T03:57:15;25;24;
47079;PMS5003;33067;49.296;14.470;2023-04-24T03:59:41;27;25;
47079;PMS5003;33067;49.296;14.470;2023-04-24T04:02:06;39;31;
47079;PMS5003;33067;49.296;14.470;2023-04-24T04:04:31;39;38;
47079;PMS5003;33067;49.296;14.470;2023-04-24T04:06:56;30;30;
47079;PMS5003;33067;49.296;14.470;2023-04-24T04:09:21;35;33;
47079;PMS5003;33067;49.296;14.470;2023-04-24T04:11:47;36;35;
47079;PMS5003;33067;49.296;14.470;2023-04-24T04:14:12;32;32;
47079;PMS5003;33067;49.296;14.470;2023-04-24T04:16:38;27;25;
47079;PMS5003;33067;49.296;14.470;2023-04-24T04:19:03;27;23;
47079;PMS5003;33067;49.296;14.470;2023-04-24T04:21:28;18;18;
47079;PMS5003;33067;49.296;14.470;2023-04-24T04:23:54;24;23;
47079;PMS5003;33067;49.296;14.470;2023-04-24T04:26:19;29;21;
47079;PMS5003;33067;49.296;14.470;2023-04-24T04:28:44;19;19;
47079;PMS5003;33067;49.296;14.470;2023-04-24T04:31:09;19;18;
47079;PMS5003;33067;49.296;14.470;2023-04-24T04:33:35;24;20;
47079;PMS5003;33067;49.296;14.470;2023-04-24T04:36:00;19;17;
47079;PMS5003;33067;49.296;14.470;2023-04-24T04:38:25;18;17;
47079;PMS5003;33067;49.296;14.470;2023-04-24T04:40:51;15;15;
47079;PMS5003;33067;49.296;14.470;2023-04-24T04:43:17;19;18;
47079;PMS5003;33067;49.296;14.470;2023-04-24T04:45:42;15;15;
47079;PMS5003;33067;49.296;14.470;2023-04-24T04:48:07;17;16;
47079;PMS5003;33067;49.296;14.470;2023-04-24T04:50:33;18;18;
47079;PMS5003;33067;49.296;14.470;2023-04-24T04:52:59;19;17;
47079;PMS5003;33067;49.296;14.470;2023-04-24T04:55:24;18;16;
47079;PMS5003;33067;49.296;14.470;2023-04-24T04:57:50;20;15;
47079;PMS5003;33067;49.296;14.470;2023-04-24T05:00:15;19;15;
47079;PMS5003;33067;49.296;14.470;2023-04-24T05:02:41;19;19;
47079;PMS5003;33067;49.296;14.470;2023-04-24T05:05:06;15;14;
47079;PMS5003;33067;49.296;14.470;2023-04-24T05:07:31;13;13;
47079;PMS5003;33067;49.296;14.470;2023-04-24T05:09:57;11;10;
47079;PMS5003;33067;49.296;14.470;2023-04-24T05:12:22;13;13;
47079;PMS5003;33067;49.296;14.470;2023-04-24T05:14:48;19;17;
47079;PMS5003;33067;49.296;14.470;2023-04-24T05:17:13;32;31;
47079;PMS5003;33067;49.296;14.470;2023-04-24T05:19:39;39;37;
47079;PMS5003;33067;49.296;14.470;2023-04-24T05:22:04;38;36;
47079;PMS5003;33067;49.296;14.470;2023-04-24T05:24:29;35;31;
47079;PMS5003;33067;49.296;14.470;2023-04-24T05:26:55;41;37;
47079;PMS5003;33067;49.296;14.470;2023-04-24T05:29:20;36;36;
47079;PMS5003;33067;49.296;14.470;2023-04-24T05:31:46;34;32;
47079;PMS5003;33067;49.296;14.470;2023-04-24T05:34:11;29;29;
47079;PMS5003;33067;49.296;14.470;2023-04-24T05:36:37;44;43;
47079;PMS5003;33067;49.296;14.470;2023-04-24T05:39:03;51;47;
47079;PMS5003;33067;49.296;14.470;2023-04-24T05:41:28;56;55;
47079;PMS5003;33067;49.296;14.470;2023-04-24T05:43:54;45;45;
47079;PMS5003;33067;49.296;14.470;2023-04-24T05:46:20;39;39;
47079;PMS5003;33067;49.296;14.470;2023-04-24T05:48:45;46;43;
47079;PMS5003;33067;49.296;14.470;2023-04-24T05:51:11;42;42;
47079;PMS5003;33067;49.296;14.470;2023-04-24T05:53:36;42;42;
47079;PMS5003;33067;49.296;14.470;2023-04-24T05:56:02;43;42;
47079;PMS5003;33067;49.296;14.470;2023-04-24T05:58:28;41;35;
47079;PMS5003;33067;49.296;14.470;2023-04-24T06:00:53;34;33;
47079;PMS5003;33067;49.296;14.470;2023-04-24T06:03:19;36;35;
47079;PMS5003;33067;49.296;14.470;2023-04-24T06:05:44;32;28;
47079;PMS5003;33067;49.296;14.470;2023-04-24T06:08:09;40;37;
47079;PMS5003;33067;49.296;14.470;2023-04-24T06:10:34;29;27;
47079;PMS5003;33067;49.296;14.470;2023-04-24T06:13:00;41;33;
47079;PMS5003;33067;49.296;14.470;2023-04-24T06:15:27;46;42;
47079;PMS5003;33067;49.296;14.470;2023-04-24T06:17:51;43;42;
47079;PMS5003;33067;49.296;14.470;2023-04-24T06:20:16;33;30;
47079;PMS5003;33067;49.296;14.470;2023-04-24T06:22:41;27;27;
47079;PMS5003;33067;49.296;14.470;2023-04-24T06:25:07;23;23;
47079;PMS5003;33067;49.296;14.470;2023-04-24T06:27:32;22;21;
47079;PMS5003;33067;49.296;14.470;2023-04-24T06:29:57;15;15;
47079;PMS5003;33067;49.296;14.470;2023-04-24T06:32:23;15;15;
47079;PMS5003;33067;49.296;14.470;2023-04-24T06:34:49;16;16;
47079;PMS5003;33067;49.296;14.470;2023-04-24T06:37:14;15;14;
47079;PMS5003;33067;49.296;14.470;2023-04-24T06:39:40;12;12;
47079;PMS5003;33067;49.296;14.470;2023-04-24T06:42:05;9;9;
47079;PMS5003;33067;49.296;14.470;2023-04-24T06:44:31;14;14;
47079;PMS5003;33067;49.296;14.470;2023-04-24T06:46:56;10;10;
47079;PMS5003;33067;49.296;14.470;2023-04-24T06:49:21;14;11;
47079;PMS5003;33067;49.296;14.470;2023-04-24T06:51:47;15;12;
47079;PMS5003;33067;49.296;14.470;2023-04-24T06:54:11;10;10;
47079;PMS5003;33067;49.296;14.470;2023-04-24T06:56:37;15;12;
47079;PMS5003;33067;49.296;14.470;2023-04-24T06:59:02;12;12;
47079;PMS5003;33067;49.296;14.470;2023-04-24T07:01:28;12;10;
47079;PMS5003;33067;49.296;14.470;2023-04-24T07:03:53;10;10;
47079;PMS5003;33067;49.296;14.470;2023-04-24T07:06:18;10;10;
47079;PMS5003;33067;49.296;14.470;2023-04-24T07:08:44;14;14;
47079;PMS5003;33067;49.296;14.470;2023-04-24T07:11:09;12;12;
47079;PMS5003;33067;49.296;14.470;2023-04-24T07:13:34;10;10;
47079;PMS5003;33067;49.296;14.470;2023-04-24T07:15:59;10;10;
47079;PMS5003;33067;49.296;14.470;2023-04-24T07:18:25;12;10;
47079;PMS5003;33067;49.296;14.470;2023-04-24T07:20:50;8;8;
47079;PMS5003;33067;49.296;14.470;2023-04-24T07:23:16;10;8;
47079;PMS5003;33067;49.296;14.470;2023-04-24T07:25:41;9;8;
47079;PMS5003;33067;49.296;14.470;2023-04-24T07:28:07;5;5;
47079;PMS5003;33067;49.296;14.470;2023-04-24T07:30:32;5;5;
47079;PMS5003;33067;49.296;14.470;2023-04-24T07:32:57;8;6;
47079;PMS5003;33067;49.296;14.470;2023-04-24T07:35:22;7;6;
47079;PMS5003;33067;49.296;14.470;2023-04-24T07:37:47;7;6;
47079;PMS5003;33067;49.296;14.470;2023-04-24T07:40:13;7;7;
47079;PMS5003;33067;49.296;14.470;2023-04-24T07:42:38;5;5;
47079;PMS5003;33067;49.296;14.470;2023-04-24T07:45:03;7;7;
47079;PMS5003;33067;49.296;14.470;2023-04-24T07:47:28;5;5;
47079;PMS5003;33067;49.296;14.470;2023-04-24T07:49:53;8;7;
47079;PMS5003;33067;49.296;14.470;2023-04-24T07:52:19;6;6;
47079;PMS5003;33067;49.296;14.470;2023-04-24T07:54:44;8;7;
47079;PMS5003;33067;49.296;14.470;2023-04-24T07:57:10;9;9;
47079;PMS5003;33067;49.296;14.470;2023-04-24T07:59:35;7;7;
47079;PMS5003;33067;49.296;14.470;2023-04-24T08:02:00;6;5;
47079;PMS5003;33067;49.296;14.470;2023-04-24T08:04:25;6;6;
47079;PMS5003;33067;49.296;14.470;2023-04-24T08:06:51;12;8;
47079;PMS5003;33067;49.296;14.470;2023-04-24T08:09:16;9;9;
47079;PMS5003;33067;49.296;14.470;2023-04-24T08:11:41;9;9;
47079;PMS5003;33067;49.296;14.470;2023-04-24T08:14:06;6;6;
47079;PMS5003;33067;49.296;14.470;2023-04-24T08:16:32;7;7;
47079;PMS5003;33067;49.296;14.470;2023-04-24T08:18:57;8;7;
47079;PMS5003;33067;49.296;14.470;2023-04-24T08:21:22;8;8;
47079;PMS5003;33067;49.296;14.470;2023-04-24T08:23:48;28;25;
47079;PMS5003;33067;49.296;14.470;2023-04-24T08:26:14;26;23;
47079;PMS5003;33067;49.296;14.470;2023-04-24T08:28:40;12;11;
47079;PMS5003;33067;49.296;14.470;2023-04-24T08:31:05;9;9;
47079;PMS5003;33067;49.296;14.470;2023-04-24T08:33:31;26;21;
47079;PMS5003;33067;49.296;14.470;2023-04-24T08:35:56;7;7;
47079;PMS5003;33067;49.296;14.470;2023-04-24T08:38:21;6;6;
47079;PMS5003;33067;49.296;14.470;2023-04-24T08:40:46;6;6;
47079;PMS5003;33067;49.296;14.470;2023-04-24T08:43:12;10;10;
47079;PMS5003;33067;49.296;14.470;2023-04-24T08:45:38;9;9;
47079;PMS5003;33067;49.296;14.470;2023-04-24T08:48:04;12;10;
47079;PMS5003;33067;49.296;14.470;2023-04-24T08:50:29;10;10;
47079;PMS5003;33067;49.296;14.470;2023-04-24T08:52:54;8;8;
47079;PMS5003;33067;49.296;14.470;2023-04-24T08:55:19;7;7;
47079;PMS5003;33067;49.296;14.470;2023-04-24T08:57:44;8;8;
47079;PMS5003;33067;49.296;14.470;2023-04-24T09:00:10;6;6;
47079;PMS5003;33067;49.296;14.470;2023-04-24T09:02:35;10;10;
47079;PMS5003;33067;49.296;14.470;2023-04-24T09:05:01;9;7;
47079;PMS5003;33067;49.296;14.470;2023-04-24T09:07:26;11;10;
47079;PMS5003;33067;49.296;14.470;2023-04-24T09:09:51;15;15;
47079;PMS5003;33067;49.296;14.470;2023-04-24T09:12:17;12;12;
47079;PMS5003;33067;49.296;14.470;2023-04-24T09:14:42;7;7;
47079;PMS5003;33067;49.296;14.470;2023-04-24T09:17:07;8;8;
47079;PMS5003;33067;49.296;14.470;2023-04-24T09:19:33;13;12;
47079;PMS5003;33067;49.296;14.470;2023-04-24T09:21:58;11;11;
47079;PMS5003;33067;49.296;14.470;2023-04-24T09:24:23;13;11;
47079;PMS5003;33067;49.296;14.470;2023-04-24T09:26:49;11;11;
47079;PMS5003;33067;49.296;14.470;2023-04-24T09:29:14;9;9;
47079;PMS5003;33067;49.296;14.470;2023-04-24T09:31:38;12;12;
47079;PMS5003;33067;49.296;14.470;2023-04-24T09:34:05;10;10;
47079;PMS5003;33067;49.296;14.470;2023-04-24T09:36:30;10;9;
47079;PMS5003;33067;49.296;14.470;2023-04-24T09:38:58;8;8;
47079;PMS5003;33067;49.296;14.470;2023-04-24T09:41:20;8;8;
47079;PMS5003;33067;49.296;14.470;2023-04-24T09:43:45;8;8;
47079;PMS5003;33067;49.296;14.470;2023-04-24T09:46:10;7;7;
47079;PMS5003;33067;49.296;14.470;2023-04-24T09:48:36;7;7;
47079;PMS5003;33067;49.296;14.470;2023-04-24T09:51:01;11;10;
47079;PMS5003;33067;49.296;14.470;2023-04-24T09:53:26;9;9;
47079;PMS5003;33067;49.296;14.470;2023-04-24T09:55:51;9;8;
47079;PMS5003;33067;49.296;14.470;2023-04-24T09:58:16;9;7;
47079;PMS5003;33067;49.296;14.470;2023-04-24T10:00:41;9;8;
47079;PMS5003;33067;49.296;14.470;2023-04-24T10:03:06;9;9;
47079;PMS5003;33067;49.296;14.470;2023-04-24T10:05:32;7;7;
47079;PMS5003;33067;49.296;14.470;2023-04-24T10:07:57;8;7;
47079;PMS5003;33067;49.296;14.470;2023-04-24T10:10:22;6;6;
47079;PMS5003;33067;49.296;14.470;2023-04-24T10:12:47;6;6;
47079;PMS5003;33067;49.296;14.470;2023-04-24T10:15:12;14;12;
47079;PMS5003;33067;49.296;14.470;2023-04-24T10:17:38;9;7;
47079;PMS5003;33067;49.296;14.470;2023-04-24T10:20:04;9;6;
47079;PMS5003;33067;49.296;14.470;2023-04-24T10:22:28;8;8;
47079;PMS5003;33067;49.296;14.470;2023-04-24T10:24:53;15;13;
47079;PMS5003;33067;49.296;14.470;2023-04-24T10:27:19;11;8;
47079;PMS5003;33067;49.296;14.470;2023-04-24T10:29:44;4;4;
47079;PMS5003;33067;49.296;14.470;2023-04-24T10:32:09;10;10;
47079;PMS5003;33067;49.296;14.470;2023-04-24T10:34:34;8;7;
47079;PMS5003;33067;49.296;14.470;2023-04-24T10:36:59;5;5;
47079;PMS5003;33067;49.296;14.470;2023-04-24T10:39:24;5;5;
47079;PMS5003;33067;49.296;14.470;2023-04-24T10:41:49;5;5;
47079;PMS5003;33067;49.296;14.470;2023-04-24T10:44:15;6;6;
47079;PMS5003;33067;49.296;14.470;2023-04-24T10:46:42;4;4;
47079;PMS5003;33067;49.296;14.470;2023-04-24T10:49:06;6;6;
47079;PMS5003;33067;49.296;14.470;2023-04-24T10:53:57;4;4;
47079;PMS5003;33067;49.296;14.470;2023-04-24T10:56:21;5;5;
47079;PMS5003;33067;49.296;14.470;2023-04-24T10:58:49;4;4;
47079;PMS5003;33067;49.296;14.470;2023-04-24T11:03:36;3;3;
47079;PMS5003;33067;49.296;14.470;2023-04-24T11:06:02;3;3;
47079;PMS5003;33067;49.296;14.470;2023-04-24T11:08:28;3;3;
47079;PMS5003;33067;49.296;14.470;2023-04-24T11:10:56;4;4;
47079;PMS5003;33067;49.296;14.470;2023-04-24T11:13:17;4;4;
47079;PMS5003;33067;49.296;14.470;2023-04-24T11:15:42;5;5;
47079;PMS5003;33067;49.296;14.470;2023-04-24T11:18:07;4;4;
47079;PMS5003;33067;49.296;14.470;2023-04-24T11:20:33;4;4;
47079;PMS5003;33067;49.296;14.470;2023-04-24T11:23:00;4;4;
47079;PMS5003;33067;49.296;14.470;2023-04-24T11:25:23;3;3;
47079;PMS5003;33067;49.296;14.470;2023-04-24T11:27:48;3;3;
47079;PMS5003;33067;49.296;14.470;2023-04-24T11:30:16;5;5;
47079;PMS5003;33067;49.296;14.470;2023-04-24T11:32:41;8;7;
47079;PMS5003;33067;49.296;14.470;2023-04-24T11:35:04;4;4;
47079;PMS5003;33067;49.296;14.470;2023-04-24T11:37:29;6;5;
47079;PMS5003;33067;49.296;14.470;2023-04-24T11:39:55;5;5;
47079;PMS5003;33067;49.296;14.470;2023-04-24T11:42:20;5;5;
47079;PMS5003;33067;49.296;14.470;2023-04-24T11:44:44;3;3;
47079;PMS5003;33067;49.296;14.470;2023-04-24T11:47:09;5;4;
47079;PMS5003;33067;49.296;14.470;2023-04-24T11:49:36;6;4;
47079;PMS5003;33067;49.296;14.470;2023-04-24T11:52:00;5;4;
47079;PMS5003;33067;49.296;14.470;2023-04-24T11:54:25;5;5;
47079;PMS5003;33067;49.296;14.470;2023-04-24T11:56:50;3;3;
47079;PMS5003;33067;49.296;14.470;2023-04-24T11:59:15;4;4;
47079;PMS5003;33067;49.296;14.470;2023-04-24T12:01:43;3;3;
47079;PMS5003;33067;49.296;14.470;2023-04-24T12:04:05;2;2;
47079;PMS5003;33067;49.296;14.470;2023-04-24T12:06:30;3;3;
47079;PMS5003;33067;49.296;14.470;2023-04-24T12:08:55;2;2;
47079;PMS5003;33067;49.296;14.470;2023-04-24T12:11:21;1;1;
47079;PMS5003;33067;49.296;14.470;2023-04-24T12:13:46;3;3;
47079;PMS5003;33067;49.296;14.470;2023-04-24T12:16:11;2;2;
47079;PMS5003;33067;49.296;14.470;2023-04-24T12:18:41;2;2;
47079;PMS5003;33067;49.296;14.470;2023-04-24T12:23:33;2;2;
47079;PMS5003;33067;49.296;14.470;2023-04-24T12:25:52;1;1;
47079;PMS5003;33067;49.296;14.470;2023-04-24T12:28:17;1;1;
47079;PMS5003;33067;49.296;14.470;2023-04-24T12:30:43;4;2;
47079;PMS5003;33067;49.296;14.470;2023-04-24T12:33:07;4;4;
47079;PMS5003;33067;49.296;14.470;2023-04-24T12:35:33;1;1;
47079;PMS5003;33067;49.296;14.470;2023-04-24T12:40:24;3;1;
47079;PMS5003;33067;49.296;14.470;2023-04-24T12:42:49;1;1;
47079;PMS5003;33067;49.296;14.470;2023-04-24T12:45:14;3;2;
47079;PMS5003;33067;49.296;14.470;2023-04-24T12:47:39;3;1;
47079;PMS5003;33067;49.296;14.470;2023-04-24T12:50:04;3;3;
47079;PMS5003;33067;49.296;14.470;2023-04-24T12:52:29;4;3;
47079;PMS5003;33067;49.296;14.470;2023-04-24T12:54:55;2;2;
47079;PMS5003;33067;49.296;14.470;2023-04-24T12:57:19;2;2;
47079;PMS5003;33067;49.296;14.470;2023-04-24T12:59:45;2;2;
47079;PMS5003;33067;49.296;14.470;2023-04-24T13:02:11;7;7;
47079;PMS5003;33067;49.296;14.470;2023-04-24T13:04:36;4;2;
47079;PMS5003;33067;49.296;14.470;2023-04-24T13:07:01;2;2;
47079;PMS5003;33067;49.296;14.470;2023-04-24T13:09:26;1;1;
47079;PMS5003;33067;49.296;14.470;2023-04-24T13:11:51;2;2;
47079;PMS5003;33067;49.296;14.470;2023-04-24T13:14:16;3;3;
47079;PMS5003;33067;49.296;14.470;2023-04-24T13:16:42;4;4;
47079;PMS5003;33067;49.296;14.470;2023-04-24T13:19:07;3;3;
47079;PMS5003;33067;49.296;14.470;2023-04-24T13:21:32;5;5;
47079;PMS5003;33067;49.296;14.470;2023-04-24T13:23:57;6;6;
47079;PMS5003;33067;49.296;14.470;2023-04-24T13:26:22;4;4;
47079;PMS5003;33067;49.296;14.470;2023-04-24T13:28:48;7;6;
47079;PMS5003;33067;49.296;14.470;2023-04-24T13:31:13;4;2;
47079;PMS5003;33067;49.296;14.470;2023-04-24T13:33:38;9;7;
47079;PMS5003;33067;49.296;14.470;2023-04-24T13:36:03;2;2;
47079;PMS5003;33067;49.296;14.470;2023-04-24T13:38:28;6;6;
47079;PMS5003;33067;49.296;14.470;2023-04-24T13:40:53;6;5;
47079;PMS5003;33067;49.296;14.470;2023-04-24T13:43:19;5;5;
47079;PMS5003;33067;49.296;14.470;2023-04-24T13:45:44;6;5;
47079;PMS5003;33067;49.296;14.470;2023-04-24T13:48:09;6;6;
47079;PMS5003;33067;49.296;14.470;2023-04-24T13:50:34;7;5;
47079;PMS5003;33067;49.296;14.470;2023-04-24T13:52:59;9;6;
47079;PMS5003;33067;49.296;14.470;2023-04-24T13:55:24;6;5;
47079;PMS5003;33067;49.296;14.470;2023-04-24T13:57:50;5;5;
47079;PMS5003;33067;49.296;14.470;2023-04-24T14:00:16;5;4;
47079;PMS5003;33067;49.296;14.470;2023-04-24T14:02:40;7;7;
47079;PMS5003;33067;49.296;14.470;2023-04-24T14:05:06;4;4;
47079;PMS5003;33067;49.296;14.470;2023-04-24T14:07:31;6;6;
47079;PMS5003;33067;49.296;14.470;2023-04-24T14:09:56;5;5;
47079;PMS5003;33067;49.296;14.470;2023-04-24T14:12:21;5;5;
47079;PMS5003;33067;49.296;14.470;2023-04-24T14:14:46;8;8;
47079;PMS5003;33067;49.296;14.470;2023-04-24T14:17:11;6;5;
47079;PMS5003;33067;49.296;14.470;2023-04-24T14:19:37;4;4;
47079;PMS5003;33067;49.296;14.470;2023-04-24T14:22:02;6;6;
47079;PMS5003;33067;49.296;14.470;2023-04-24T14:24:27;6;6;
47079;PMS5003;33067;49.296;14.470;2023-04-24T14:26:52;5;5;
47079;PMS5003;33067;49.296;14.470;2023-04-24T14:29:17;5;5;
47079;PMS5003;33067;49.296;14.470;2023-04-24T14:31:42;6;6;
47079;PMS5003;33067;49.296;14.470;2023-04-24T14:34:08;7;6;
47079;PMS5003;33067;49.296;14.470;2023-04-24T14:36:33;8;6;
47079;PMS5003;33067;49.296;14.470;2023-04-24T14:38:58;6;5;
47079;PMS5003;33067;49.296;14.470;2023-04-24T14:41:23;9;9;
47079;PMS5003;33067;49.296;14.470;2023-04-24T14:43:49;6;6;
47079;PMS5003;33067;49.296;14.470;2023-04-24T14:46:14;3;3;
47079;PMS5003;33067;49.296;14.470;2023-04-24T14:48:39;5;5;
47079;PMS5003;33067;49.296;14.470;2023-04-24T14:51:04;5;5;
47079;PMS5003;33067;49.296;14.470;2023-04-24T14:53:30;11;8;
47079;PMS5003;33067;49.296;14.470;2023-04-24T14:55:54;6;6;
47079;PMS5003;33067;49.296;14.470;2023-04-24T14:58:19;7;7;
47079;PMS5003;33067;49.296;14.470;2023-04-24T15:00:45;8;8;
47079;PMS5003;33067;49.296;14.470;2023-04-24T15:03:10;7;7;
47079;PMS5003;33067;49.296;14.470;2023-04-24T15:05:35;9;7;
47079;PMS5003;33067;49.296;14.470;2023-04-24T15:08:00;7;7;
47079;PMS5003;33067;49.296;14.470;2023-04-24T15:10:26;9;7;
47079;PMS5003;33067;49.296;14.470;2023-04-24T15:12:51;8;8;
47079;PMS5003;33067;49.296;14.470;2023-04-24T15:15:16;9;7;
47079;PMS5003;33067;49.296;14.470;2023-04-24T15:17:41;7;6;
47079;PMS5003;33067;49.296;14.470;2023-04-24T15:20:07;5;5;
47079;PMS5003;33067;49.296;14.470;2023-04-24T15:22:31;6;6;
47079;PMS5003;33067;49.296;14.470;2023-04-24T15:24:57;10;10;
47079;PMS5003;33067;49.296;14.470;2023-04-24T15:27:22;5;5;
47079;PMS5003;33067;49.296;14.470;2023-04-24T15:29:47;7;7;
47079;PMS5003;33067;49.296;14.470;2023-04-24T15:32:12;5;5;
47079;PMS5003;33067;49.296;14.470;2023-04-24T15:34:37;7;5;
47079;PMS5003;33067;49.296;14.470;2023-04-24T15:37:02;6;6;
47079;PMS5003;33067;49.296;14.470;2023-04-24T15:39:27;7;7;
47079;PMS5003;33067;49.296;14.470;2023-04-24T15:41:53;26;25;
47079;PMS5003;33067;49.296;14.470;2023-04-24T15:44:18;16;16;
47079;PMS5003;33067;49.296;14.470;2023-04-24T15:46:44;10;10;
47079;PMS5003;33067;49.296;14.470;2023-04-24T15:49:09;5;5;
47079;PMS5003;33067;49.296;14.470;2023-04-24T15:51:35;13;13;
47079;PMS5003;33067;49.296;14.470;2023-04-24T15:54:00;9;9;
47079;PMS5003;33067;49.296;14.470;2023-04-24T15:56:25;8;8;
47079;PMS5003;33067;49.296;14.470;2023-04-24T15:58:50;7;7;
47079;PMS5003;33067;49.296;14.470;2023-04-24T16:01:15;6;6;
47079;PMS5003;33067;49.296;14.470;2023-04-24T16:03:40;6;6;
47079;PMS5003;33067;49.296;14.470;2023-04-24T16:06:06;5;5;
47079;PMS5003;33067;49.296;14.470;2023-04-24T16:08:31;9;9;
47079;PMS5003;33067;49.296;14.470;2023-04-24T16:10:56;11;8;
47079;PMS5003;33067;49.296;14.470;2023-04-24T16:13:21;9;8;